createdAt,value
2016-07-13T00:00:32.925Z,0
2016-07-13T00:01:29.714Z,0
2016-07-13T00:02:29.711Z,0
2016-07-13T00:03:31.122Z,0
2016-07-13T00:04:31.130Z,0
2016-07-13T00:05:31.845Z,0
2016-07-13T00:06:31.140Z,0
2016-07-13T00:07:30.648Z,0
2016-07-13T00:08:30.450Z,0
2016-07-13T00:09:31.559Z,0
2016-07-13T00:10:31.161Z,0
2016-07-13T00:11:32.688Z,0
2016-07-13T00:12:31.887Z,0
2016-07-13T00:13:30.470Z,0
2016-07-13T00:14:31.191Z,0
2016-07-13T00:15:31.247Z,0
2016-07-13T00:16:29.828Z,0
2016-07-13T00:17:30.495Z,0
2016-07-13T00:18:31.857Z,0
2016-07-13T00:19:30.510Z,0
2016-07-13T00:20:30.916Z,0
2016-07-13T00:21:29.105Z,0
2016-07-13T00:22:30.522Z,0
2016-07-13T00:23:31.245Z,0
2016-07-13T00:24:31.238Z,0
2016-07-13T00:25:29.837Z,0
2016-07-13T00:26:31.250Z,0
2016-07-13T00:27:30.551Z,0
2016-07-13T00:28:31.265Z,0
2016-07-13T00:29:31.725Z,0
2016-07-13T00:30:29.858Z,0
2016-07-13T00:31:31.480Z,0
2016-07-13T00:32:30.580Z,0
2016-07-13T00:33:32.730Z,0
2016-07-13T00:34:30.602Z,0
2016-07-13T00:35:30.599Z,0
2016-07-13T00:36:32.009Z,0
2016-07-13T00:37:31.309Z,0
2016-07-13T00:38:30.613Z,0
2016-07-13T00:39:32.026Z,0
2016-07-13T00:40:31.116Z,0
2016-07-13T00:41:31.329Z,0
2016-07-13T00:42:31.381Z,0
2016-07-13T00:43:30.631Z,0
2016-07-13T00:44:32.501Z,0
2016-07-13T00:45:30.643Z,0
2016-07-13T00:46:29.940Z,0
2016-07-13T00:47:31.364Z,0
2016-07-13T00:48:29.963Z,0
2016-07-13T00:49:29.252Z,0
2016-07-13T00:50:30.674Z,0
2016-07-13T00:51:31.089Z,0
2016-07-13T00:52:29.977Z,0
2016-07-13T00:53:31.449Z,0
2016-07-13T00:54:30.691Z,0
2016-07-13T00:55:33.217Z,0
2016-07-13T00:56:31.411Z,0
2016-07-13T00:57:31.414Z,0
2016-07-13T00:58:30.715Z,0
2016-07-13T00:59:30.723Z,0
2016-07-13T01:00:30.718Z,0
2016-07-13T01:01:30.739Z,0
2016-07-13T01:02:31.938Z,0
2016-07-13T01:03:31.445Z,0
2016-07-13T01:04:30.989Z,0
2016-07-13T01:05:31.458Z,0
2016-07-13T01:06:30.751Z,0
2016-07-13T01:07:30.756Z,0
2016-07-13T01:08:31.469Z,0
2016-07-13T01:09:30.770Z,0
2016-07-13T01:10:32.184Z,0
2016-07-13T01:11:30.776Z,0
2016-07-13T01:12:30.788Z,0
2016-07-13T01:13:30.584Z,0
2016-07-13T01:14:31.502Z,0
2016-07-13T01:15:31.202Z,0
2016-07-13T01:16:31.567Z,0
2016-07-13T01:17:30.811Z,0
2016-07-13T01:18:32.243Z,0
2016-07-13T01:19:32.258Z,0
2016-07-13T01:20:29.483Z,0
2016-07-13T01:21:31.537Z,0
2016-07-13T01:22:31.558Z,0
2016-07-13T01:23:30.854Z,0
2016-07-13T01:24:32.359Z,0
2016-07-13T01:25:31.562Z,0
2016-07-13T01:26:31.313Z,0
2016-07-13T01:27:32.277Z,0
2016-07-13T01:28:30.868Z,0
2016-07-13T01:29:30.880Z,0
2016-07-13T01:30:30.221Z,0
2016-07-13T01:31:30.182Z,0
2016-07-13T01:32:32.311Z,0
2016-07-13T01:33:31.609Z,0
2016-07-13T01:34:30.916Z,0
2016-07-13T01:35:32.719Z,0
2016-07-13T01:36:31.623Z,0
2016-07-13T01:37:33.088Z,0
2016-07-13T01:38:30.218Z,0
2016-07-13T01:39:30.933Z,0
2016-07-13T01:40:32.361Z,0
2016-07-13T01:41:30.951Z,0
2016-07-13T01:42:30.945Z,0
2016-07-13T01:43:30.964Z,0
2016-07-13T01:44:31.669Z,0
2016-07-13T01:45:30.964Z,0
2016-07-13T01:46:30.720Z,0
2016-07-13T01:47:30.988Z,0
2016-07-13T01:48:33.225Z,0
2016-07-13T01:49:30.993Z,0
2016-07-13T01:50:30.698Z,0
2016-07-13T01:51:31.723Z,0
2016-07-13T01:52:31.714Z,0
2016-07-13T01:53:31.032Z,0
2016-07-13T01:54:31.022Z,0
2016-07-13T01:55:31.024Z,0
2016-07-13T01:56:31.742Z,0
2016-07-13T01:57:32.755Z,0
2016-07-13T01:58:32.461Z,0
2016-07-13T01:59:31.754Z,0
2016-07-13T02:00:31.061Z,0
2016-07-13T02:01:32.734Z,0
2016-07-13T02:02:31.776Z,0
2016-07-13T02:03:31.081Z,0
2016-07-13T02:04:32.495Z,0
2016-07-13T02:05:31.083Z,0
2016-07-13T02:06:31.791Z,0
2016-07-13T02:07:31.801Z,0
2016-07-13T02:08:32.052Z,0
2016-07-13T02:09:32.509Z,0
2016-07-13T02:10:31.105Z,0
2016-07-13T02:11:31.816Z,0
2016-07-13T02:12:29.896Z,0
2016-07-13T02:13:31.830Z,0
2016-07-13T02:14:32.541Z,0
2016-07-13T02:15:29.711Z,0
2016-07-13T02:16:31.839Z,0
2016-07-13T02:17:31.188Z,0
2016-07-13T02:18:31.137Z,0
2016-07-13T02:19:31.943Z,0
2016-07-13T02:20:31.151Z,0
2016-07-13T02:21:31.551Z,0
2016-07-13T02:22:31.866Z,0
2016-07-13T02:23:32.710Z,0
2016-07-13T02:24:31.875Z,0
2016-07-13T02:25:31.883Z,0
2016-07-13T02:26:31.888Z,0
2016-07-13T02:27:30.474Z,0
2016-07-13T02:28:31.904Z,0
2016-07-13T02:29:31.904Z,0
2016-07-13T02:30:31.249Z,0
2016-07-13T02:31:30.495Z,0
2016-07-13T02:32:33.134Z,0
2016-07-13T02:33:31.918Z,0
2016-07-13T02:34:32.795Z,0
2016-07-13T02:35:30.532Z,0
2016-07-13T02:36:30.519Z,0
2016-07-13T02:37:31.229Z,0
2016-07-13T02:38:30.531Z,0
2016-07-13T02:39:32.657Z,0
2016-07-13T02:40:31.948Z,0
2016-07-13T02:41:32.009Z,0
2016-07-13T02:42:30.551Z,0
2016-07-13T02:43:33.892Z,0
2016-07-13T02:44:30.559Z,0
2016-07-13T02:45:32.780Z,0
2016-07-13T02:46:31.270Z,0
2016-07-13T02:47:31.980Z,0
2016-07-13T02:48:31.295Z,0
2016-07-13T02:49:31.291Z,0
2016-07-13T02:50:30.586Z,0
2016-07-13T02:51:32.721Z,0
2016-07-13T02:52:32.720Z,0
2016-07-13T02:53:32.014Z,0
2016-07-13T02:54:32.943Z,0
2016-07-13T02:55:31.317Z,0
2016-07-13T02:56:32.642Z,0
2016-07-13T02:57:31.329Z,0
2016-07-13T02:58:31.331Z,0
2016-07-13T02:59:29.920Z,0
2016-07-13T03:00:29.934Z,0
2016-07-13T03:01:32.759Z,0
2016-07-13T03:02:32.059Z,0
2016-07-13T03:03:31.052Z,0
2016-07-13T03:04:32.064Z,0
2016-07-13T03:05:32.905Z,0
2016-07-13T03:06:31.363Z,0
2016-07-13T03:07:32.521Z,0
2016-07-13T03:08:32.797Z,0
2016-07-13T03:09:32.088Z,0
2016-07-13T03:10:32.093Z,0
2016-07-13T03:11:31.392Z,0
2016-07-13T03:12:31.397Z,0
2016-07-13T03:13:31.401Z,0
2016-07-13T03:14:32.816Z,0
2016-07-13T03:15:30.702Z,0
2016-07-13T03:16:32.662Z,0
2016-07-13T03:17:30.710Z,0
2016-07-13T03:18:30.716Z,0
2016-07-13T03:19:30.766Z,0
2016-07-13T03:20:32.139Z,0
2016-07-13T03:21:30.728Z,0
2016-07-13T03:22:31.447Z,0
2016-07-13T03:23:30.733Z,0
2016-07-13T03:24:32.160Z,0
2016-07-13T03:25:31.609Z,0
2016-07-13T03:26:32.163Z,0
2016-07-13T03:27:31.487Z,0
2016-07-13T03:28:32.177Z,0
2016-07-13T03:29:33.186Z,0
2016-07-13T03:30:32.248Z,0
2016-07-13T03:31:31.533Z,0
2016-07-13T03:32:31.489Z,0
2016-07-13T03:33:32.200Z,0
2016-07-13T03:34:32.203Z,0
2016-07-13T03:35:32.207Z,0
2016-07-13T03:36:31.047Z,0
2016-07-13T03:37:30.806Z,5
2016-07-13T03:38:33.599Z,5
2016-07-13T03:39:32.232Z,5
2016-07-13T03:40:30.818Z,5
2016-07-13T03:41:31.531Z,5
2016-07-13T03:42:30.831Z,5
2016-07-13T03:43:31.542Z,5
2016-07-13T03:44:30.133Z,5
2016-07-13T03:45:31.549Z,5
2016-07-13T03:46:30.844Z,5
2016-07-13T03:47:31.959Z,5
2016-07-13T03:48:30.853Z,5
2016-07-13T03:49:32.998Z,10
2016-07-13T03:50:31.571Z,10
2016-07-13T03:51:32.680Z,10
2016-07-13T03:52:32.286Z,10
2016-07-13T03:53:32.287Z,10
2016-07-13T03:54:33.003Z,10
2016-07-13T03:55:31.593Z,10
2016-07-13T03:56:33.012Z,15
2016-07-13T03:57:31.603Z,15
2016-07-13T03:58:31.856Z,15
2016-07-13T03:59:33.018Z,15
2016-07-13T04:00:30.910Z,15
2016-07-13T04:01:33.036Z,15
2016-07-13T04:02:32.661Z,15
2016-07-13T04:03:33.042Z,20
2016-07-13T04:04:32.345Z,20
2016-07-13T04:05:32.344Z,20
2016-07-13T04:06:30.936Z,20
2016-07-13T04:07:32.354Z,25
2016-07-13T04:08:32.357Z,25
2016-07-13T04:09:31.410Z,25
2016-07-13T04:10:30.955Z,25
2016-07-13T04:11:31.662Z,30
2016-07-13T04:12:31.680Z,30
2016-07-13T04:13:32.995Z,30
2016-07-13T04:14:31.686Z,35
2016-07-13T04:15:31.686Z,35
2016-07-13T04:16:33.106Z,35
2016-07-13T04:17:31.695Z,35
2016-07-13T04:18:32.453Z,40
2016-07-13T04:19:32.426Z,40
2016-07-13T04:20:31.505Z,40
2016-07-13T04:21:32.425Z,40
2016-07-13T04:22:31.727Z,40
2016-07-13T04:23:32.431Z,40
2016-07-13T04:24:33.546Z,40
2016-07-13T04:25:31.032Z,40
2016-07-13T04:26:31.035Z,45
2016-07-13T04:27:31.039Z,45
2016-07-13T04:28:31.766Z,45
2016-07-13T04:29:31.759Z,45
2016-07-13T04:30:32.473Z,45
2016-07-13T04:31:33.025Z,45
2016-07-13T04:32:31.782Z,45
2016-07-13T04:33:33.520Z,45
2016-07-13T04:34:32.490Z,50
2016-07-13T04:35:31.092Z,50
2016-07-13T04:36:31.090Z,50
2016-07-13T04:37:31.098Z,50
2016-07-13T04:38:32.517Z,55
2016-07-13T04:39:31.117Z,55
2016-07-13T04:40:32.528Z,55
2016-07-13T04:41:31.827Z,60
2016-07-13T04:42:31.178Z,60
2016-07-13T04:43:31.833Z,60
2016-07-13T04:44:34.575Z,60
2016-07-13T04:45:32.561Z,55
2016-07-13T04:46:34.118Z,55
2016-07-13T04:47:31.150Z,50
2016-07-13T04:48:31.874Z,45
2016-07-13T04:49:31.886Z,40
2016-07-13T04:50:31.874Z,45
2016-07-13T04:51:31.182Z,45
2016-07-13T04:52:31.885Z,50
2016-07-13T04:53:33.503Z,55
2016-07-13T04:54:31.895Z,55
2016-07-13T04:55:33.936Z,60
2016-07-13T04:56:31.908Z,75
2016-07-13T04:57:33.602Z,90
2016-07-13T04:58:31.919Z,80
2016-07-13T04:59:31.934Z,90
2016-07-13T05:00:31.924Z,155
2016-07-13T05:01:33.353Z,225
2016-07-13T05:02:32.666Z,260
2016-07-13T05:03:31.946Z,265
2016-07-13T05:04:33.562Z,300
2016-07-13T05:05:32.668Z,320
2016-07-13T05:06:31.852Z,325
2016-07-13T05:07:32.679Z,315
2016-07-13T05:08:33.622Z,330
2016-07-13T05:09:32.690Z,340
2016-07-13T05:10:32.703Z,345
2016-07-13T05:11:32.707Z,350
2016-07-13T05:12:32.703Z,355
2016-07-13T05:13:32.714Z,375
2016-07-13T05:14:31.310Z,390
2016-07-13T05:15:32.108Z,400
2016-07-13T05:16:32.744Z,400
2016-07-13T05:17:32.745Z,405
2016-07-13T05:18:33.086Z,415
2016-07-13T05:19:33.766Z,400
2016-07-13T05:20:33.470Z,435
2016-07-13T05:21:32.107Z,470
2016-07-13T05:22:32.071Z,490
2016-07-13T05:23:32.781Z,485
2016-07-13T05:24:32.075Z,500
2016-07-13T05:25:32.791Z,470
2016-07-13T05:26:33.004Z,465
2016-07-13T05:27:32.119Z,470
2016-07-13T05:28:32.816Z,510
2016-07-13T05:29:30.712Z,500
2016-07-13T05:30:31.572Z,435
2016-07-13T05:31:32.182Z,495
2016-07-13T05:32:32.191Z,510
2016-07-13T05:33:32.869Z,515
2016-07-13T05:34:32.866Z,520
2016-07-13T05:35:32.162Z,540
2016-07-13T05:36:32.172Z,530
2016-07-13T05:37:31.621Z,505
2016-07-13T05:38:31.484Z,500
2016-07-13T05:39:35.033Z,490
2016-07-13T05:40:32.215Z,485
2016-07-13T05:41:30.998Z,485
2016-07-13T05:42:33.636Z,510
2016-07-13T05:43:33.651Z,530
2016-07-13T05:44:32.245Z,535
2016-07-13T05:45:32.950Z,560
2016-07-13T05:46:32.252Z,625
2016-07-13T05:47:32.972Z,640
2016-07-13T05:48:34.138Z,635
2016-07-13T05:49:32.278Z,640
2016-07-13T05:50:32.480Z,645
2016-07-13T05:51:32.298Z,710
2016-07-13T05:52:34.337Z,755
2016-07-13T05:53:33.020Z,785
2016-07-13T05:54:30.909Z,775
2016-07-13T05:55:32.333Z,665
2016-07-13T05:56:31.634Z,760
2016-07-13T05:57:33.068Z,780
2016-07-13T05:58:33.067Z,795
2016-07-13T05:59:34.234Z,835
2016-07-13T06:00:32.378Z,825
2016-07-13T06:01:32.432Z,470
2016-07-13T06:02:33.819Z,235
2016-07-13T06:03:31.340Z,305
2016-07-13T06:04:33.140Z,490
2016-07-13T06:05:32.432Z,830
2016-07-13T06:06:33.136Z,880
2016-07-13T06:07:31.736Z,855
2016-07-13T06:08:33.157Z,855
2016-07-13T06:09:33.170Z,840
2016-07-13T06:10:33.774Z,845
2016-07-13T06:11:33.890Z,845
2016-07-13T06:12:34.954Z,930
2016-07-13T06:13:32.497Z,855
2016-07-13T06:14:31.800Z,1005
2016-07-13T06:15:32.515Z,810
2016-07-13T06:16:33.230Z,550
2016-07-13T06:17:33.237Z,940
2016-07-13T06:18:32.559Z,970
2016-07-13T06:19:32.655Z,935
2016-07-13T06:20:31.865Z,935
2016-07-13T06:21:34.844Z,905
2016-07-13T06:22:32.583Z,945
2016-07-13T06:23:33.089Z,1050
2016-07-13T06:24:33.316Z,1060
2016-07-13T06:25:32.614Z,1025
2016-07-13T06:26:33.329Z,1070
2016-07-13T06:27:32.631Z,1070
2016-07-13T06:28:32.641Z,1070
2016-07-13T06:29:31.943Z,1105
2016-07-13T06:30:31.952Z,1155
2016-07-13T06:31:32.675Z,1175
2016-07-13T06:32:34.488Z,1145
2016-07-13T06:33:32.033Z,1060
2016-07-13T06:34:33.485Z,1085
2016-07-13T06:35:32.709Z,1075
2016-07-13T06:36:32.717Z,1015
2016-07-13T06:37:33.448Z,945
2016-07-13T06:38:33.461Z,860
2016-07-13T06:39:33.453Z,830
2016-07-13T06:40:33.469Z,910
2016-07-13T06:41:34.182Z,1005
2016-07-13T06:42:33.483Z,1070
2016-07-13T06:43:34.563Z,1135
2016-07-13T06:44:33.503Z,1150
2016-07-13T06:45:33.605Z,1045
2016-07-13T06:46:32.824Z,1025
2016-07-13T06:47:35.343Z,1075
2016-07-13T06:48:32.842Z,1135
2016-07-13T06:49:32.853Z,1055
2016-07-13T06:50:32.147Z,1155
2016-07-13T06:51:33.584Z,1140
2016-07-13T06:52:34.294Z,940
2016-07-13T06:53:33.591Z,1085
2016-07-13T06:54:33.807Z,1195
2016-07-13T06:55:34.324Z,1220
2016-07-13T06:56:35.674Z,1200
2016-07-13T06:57:33.627Z,1070
2016-07-13T06:58:33.152Z,1070
2016-07-13T06:59:31.534Z,1175
2016-07-13T07:00:33.665Z,1350
2016-07-13T07:01:33.675Z,1400
2016-07-13T07:02:34.399Z,1460
2016-07-13T07:03:33.699Z,1480
2016-07-13T07:04:33.704Z,1490
2016-07-13T07:05:34.582Z,1560
2016-07-13T07:06:33.017Z,1570
2016-07-13T07:07:33.681Z,1535
2016-07-13T07:08:33.748Z,1430
2016-07-13T07:09:32.644Z,1275
2016-07-13T07:10:33.061Z,1140
2016-07-13T07:11:33.084Z,1140
2016-07-13T07:12:33.081Z,1380
2016-07-13T07:13:33.100Z,1535
2016-07-13T07:14:33.108Z,1450
2016-07-13T07:15:33.823Z,1460
2016-07-13T07:16:33.657Z,1500
2016-07-13T07:17:32.439Z,260
2016-07-13T07:18:34.958Z,1415
2016-07-13T07:19:32.450Z,1340
2016-07-13T07:20:34.589Z,1180
2016-07-13T07:21:34.708Z,1175
2016-07-13T07:22:33.897Z,365
2016-07-13T07:23:33.913Z,360
2016-07-13T07:24:33.929Z,820
2016-07-13T07:25:33.929Z,915
2016-07-13T07:26:33.236Z,725
2016-07-13T07:27:32.540Z,1035
2016-07-13T07:28:33.253Z,1365
2016-07-13T07:29:34.317Z,1205
2016-07-13T07:30:33.277Z,1085
2016-07-13T07:31:33.993Z,1275
2016-07-13T07:32:32.588Z,1310
2016-07-13T07:33:34.067Z,1195
2016-07-13T07:34:33.315Z,1150
2016-07-13T07:35:34.738Z,1100
2016-07-13T07:36:34.764Z,1285
2016-07-13T07:37:34.764Z,1155
2016-07-13T07:38:33.807Z,1040
2016-07-13T07:39:33.381Z,930
2016-07-13T07:40:34.286Z,865
2016-07-13T07:41:32.678Z,1090
2016-07-13T07:42:34.108Z,1270
2016-07-13T07:43:31.997Z,1385
2016-07-13T07:44:34.831Z,1480
2016-07-13T07:45:33.432Z,1210
2016-07-13T07:46:32.734Z,665
2016-07-13T07:47:33.453Z,240
2016-07-13T07:48:34.162Z,145
2016-07-13T07:49:34.569Z,190
2016-07-13T07:50:32.073Z,190
2016-07-13T07:51:34.387Z,185
2016-07-13T07:52:34.207Z,170
2016-07-13T07:53:36.097Z,165
2016-07-13T07:54:32.503Z,175
2016-07-13T07:55:32.820Z,190
2016-07-13T07:56:33.538Z,205
2016-07-13T07:57:34.956Z,195
2016-07-13T07:58:32.850Z,185
2016-07-13T07:59:33.568Z,180
2016-07-13T08:00:34.622Z,170
2016-07-13T08:01:33.580Z,180
2016-07-13T08:02:34.323Z,155
2016-07-13T08:03:35.010Z,145
2016-07-13T08:04:36.174Z,145
2016-07-13T08:05:33.609Z,135
2016-07-13T08:06:34.335Z,135
2016-07-13T08:07:33.623Z,150
2016-07-13T08:08:35.046Z,170
2016-07-13T08:09:35.054Z,180
2016-07-13T08:10:33.645Z,175
2016-07-13T08:11:34.000Z,170
2016-07-13T08:12:34.372Z,160
2016-07-13T08:13:35.026Z,150
2016-07-13T08:14:33.678Z,145
2016-07-13T08:15:34.050Z,140
2016-07-13T08:16:32.281Z,135
2016-07-13T08:17:34.402Z,125
2016-07-13T08:18:34.415Z,125
2016-07-13T08:19:33.713Z,125
2016-07-13T08:20:33.021Z,140
2016-07-13T08:21:33.725Z,135
2016-07-13T08:22:35.465Z,125
2016-07-13T08:23:34.448Z,115
2016-07-13T08:24:35.313Z,100
2016-07-13T08:25:34.472Z,90
2016-07-13T08:26:34.475Z,80
2016-07-13T08:27:32.353Z,75
2016-07-13T08:28:33.771Z,70
2016-07-13T08:29:33.785Z,65
2016-07-13T08:30:34.500Z,65
2016-07-13T08:31:33.095Z,65
2016-07-13T08:32:34.517Z,65
2016-07-13T08:33:34.331Z,65
2016-07-13T08:34:35.237Z,75
2016-07-13T08:35:34.977Z,80
2016-07-13T08:36:34.597Z,85
2016-07-13T08:37:33.823Z,90
2016-07-13T08:38:34.630Z,100
2016-07-13T08:39:33.856Z,110
2016-07-13T08:40:33.869Z,125
2016-07-13T08:41:33.865Z,135
2016-07-13T08:42:33.872Z,145
2016-07-13T08:43:35.299Z,160
2016-07-13T08:44:36.110Z,155
2016-07-13T08:45:34.597Z,165
2016-07-13T08:46:35.341Z,170
2016-07-13T08:47:33.197Z,170
2016-07-13T08:48:35.321Z,170
2016-07-13T08:49:33.918Z,165
2016-07-13T08:50:33.927Z,150
2016-07-13T08:51:33.928Z,155
2016-07-13T08:52:34.645Z,150
2016-07-13T08:53:32.531Z,150
2016-07-13T08:54:34.666Z,165
2016-07-13T08:55:33.247Z,165
2016-07-13T08:56:33.255Z,180
2016-07-13T08:57:35.782Z,180
2016-07-13T08:58:34.683Z,180
2016-07-13T08:59:34.688Z,170
2016-07-13T09:00:33.999Z,155
2016-07-13T09:01:35.437Z,170
2016-07-13T09:02:34.709Z,175
2016-07-13T09:03:33.308Z,170
2016-07-13T09:04:34.724Z,160
2016-07-13T09:05:34.730Z,160
2016-07-13T09:06:33.974Z,150
2016-07-13T09:07:34.046Z,145
2016-07-13T09:08:35.891Z,165
2016-07-13T09:09:34.055Z,145
2016-07-13T09:10:33.348Z,145
2016-07-13T09:11:34.059Z,150
2016-07-13T09:12:34.783Z,160
2016-07-13T09:13:34.780Z,160
2016-07-13T09:14:34.791Z,135
2016-07-13T09:15:35.511Z,125
2016-07-13T09:16:34.101Z,115
2016-07-13T09:17:35.060Z,115
2016-07-13T09:18:34.108Z,140
2016-07-13T09:19:36.494Z,145
2016-07-13T09:20:33.414Z,145
2016-07-13T09:21:35.952Z,145
2016-07-13T09:22:36.006Z,140
2016-07-13T09:23:34.848Z,140
2016-07-13T09:24:33.445Z,140
2016-07-13T09:25:34.164Z,130
2016-07-13T09:26:34.179Z,115
2016-07-13T09:27:32.759Z,100
2016-07-13T09:28:34.730Z,120
2016-07-13T09:29:33.477Z,130
2016-07-13T09:30:35.099Z,135
2016-07-13T09:31:34.194Z,130
2016-07-13T09:32:35.182Z,125
2016-07-13T09:33:32.808Z,115
2016-07-13T09:34:34.918Z,105
2016-07-13T09:35:34.929Z,110
2016-07-13T09:36:34.280Z,105
2016-07-13T09:37:34.229Z,100
2016-07-13T09:38:33.533Z,95
2016-07-13T09:39:35.352Z,105
2016-07-13T09:40:35.665Z,120
2016-07-13T09:41:36.520Z,130
2016-07-13T09:42:34.262Z,125
2016-07-13T09:43:33.561Z,140
2016-07-13T09:44:34.276Z,145
2016-07-13T09:45:34.998Z,145
2016-07-13T09:46:34.995Z,135
2016-07-13T09:47:34.308Z,135
2016-07-13T09:48:34.303Z,125
2016-07-13T09:49:34.308Z,115
2016-07-13T09:50:34.259Z,110
2016-07-13T09:51:34.316Z,110
2016-07-13T09:52:34.633Z,125
2016-07-13T09:53:35.046Z,115
2016-07-13T09:54:34.342Z,95
2016-07-13T09:55:35.057Z,90
2016-07-13T09:56:34.352Z,90
2016-07-13T09:57:33.651Z,90
2016-07-13T09:58:34.367Z,85
2016-07-13T09:59:33.666Z,80
2016-07-13T10:00:35.793Z,70
2016-07-13T10:01:35.142Z,70
2016-07-13T10:02:35.107Z,70
2016-07-13T10:03:34.410Z,70
2016-07-13T10:04:34.409Z,70
2016-07-13T10:05:33.711Z,75
2016-07-13T10:06:33.712Z,75
2016-07-13T10:07:34.424Z,70
2016-07-13T10:08:34.434Z,70
2016-07-13T10:09:35.149Z,70
2016-07-13T10:10:35.149Z,70
2016-07-13T10:11:34.455Z,70
2016-07-13T10:12:36.776Z,70
2016-07-13T10:13:34.463Z,70
2016-07-13T10:14:35.179Z,70
2016-07-13T10:15:34.482Z,70
2016-07-13T10:16:36.157Z,70
2016-07-13T10:17:35.909Z,70
2016-07-13T10:18:35.206Z,70
2016-07-13T10:19:34.511Z,70
2016-07-13T10:20:34.517Z,70
2016-07-13T10:21:35.224Z,70
2016-07-13T10:22:35.281Z,70
2016-07-13T10:23:36.384Z,75
2016-07-13T10:24:34.533Z,80
2016-07-13T10:25:34.751Z,90
2016-07-13T10:26:34.549Z,90
2016-07-13T10:27:34.560Z,95
2016-07-13T10:28:35.277Z,90
2016-07-13T10:29:33.862Z,95
2016-07-13T10:30:34.571Z,95
2016-07-13T10:31:35.288Z,100
2016-07-13T10:32:34.584Z,105
2016-07-13T10:33:34.591Z,105
2016-07-13T10:34:35.721Z,100
2016-07-13T10:35:34.603Z,100
2016-07-13T10:36:36.234Z,95
2016-07-13T10:37:36.042Z,100
2016-07-13T10:38:35.327Z,100
2016-07-13T10:39:36.094Z,95
2016-07-13T10:40:36.051Z,90
2016-07-13T10:41:36.055Z,90
2016-07-13T10:42:36.062Z,85
2016-07-13T10:43:34.655Z,80
2016-07-13T10:44:34.657Z,80
2016-07-13T10:45:36.051Z,80
2016-07-13T10:46:34.673Z,80
2016-07-13T10:47:36.442Z,75
2016-07-13T10:48:36.098Z,75
2016-07-13T10:49:35.407Z,70
2016-07-13T10:50:33.988Z,65
2016-07-13T10:51:33.991Z,65
2016-07-13T10:52:35.415Z,55
2016-07-13T10:53:34.709Z,55
2016-07-13T10:54:35.462Z,50
2016-07-13T10:55:34.016Z,50
2016-07-13T10:56:34.732Z,45
2016-07-13T10:57:34.739Z,45
2016-07-13T10:58:34.034Z,45
2016-07-13T10:59:35.451Z,45
2016-07-13T11:00:35.151Z,50
2016-07-13T11:01:34.051Z,50
2016-07-13T11:02:34.763Z,50
2016-07-13T11:03:34.062Z,50
2016-07-13T11:04:34.071Z,50
2016-07-13T11:05:36.204Z,50
2016-07-13T11:06:34.798Z,50
2016-07-13T11:07:33.980Z,50
2016-07-13T11:08:35.505Z,50
2016-07-13T11:09:36.419Z,45
2016-07-13T11:10:35.532Z,45
2016-07-13T11:11:35.423Z,45
2016-07-13T11:12:35.529Z,45
2016-07-13T11:13:34.838Z,45
2016-07-13T11:14:34.838Z,45
2016-07-13T11:15:34.840Z,50
2016-07-13T11:16:34.844Z,55
2016-07-13T11:17:36.270Z,55
2016-07-13T11:18:34.201Z,55
2016-07-13T11:19:34.160Z,60
2016-07-13T11:20:36.719Z,65
2016-07-13T11:21:36.305Z,65
2016-07-13T11:22:35.649Z,60
2016-07-13T11:23:33.527Z,60
2016-07-13T11:24:33.481Z,60
2016-07-13T11:25:35.614Z,65
2016-07-13T11:26:34.248Z,65
2016-07-13T11:27:35.617Z,70
2016-07-13T11:28:34.923Z,70
2016-07-13T11:29:37.109Z,70
2016-07-13T11:30:34.223Z,70
2016-07-13T11:31:36.885Z,70
2016-07-13T11:32:34.942Z,65
2016-07-13T11:33:34.236Z,60
2016-07-13T11:34:35.664Z,60
2016-07-13T11:35:36.373Z,60
2016-07-13T11:36:34.360Z,60
2016-07-13T11:37:35.678Z,60
2016-07-13T11:38:35.731Z,60
2016-07-13T11:39:34.979Z,65
2016-07-13T11:40:37.235Z,65
2016-07-13T11:41:35.700Z,65
2016-07-13T11:42:37.033Z,70
2016-07-13T11:43:35.007Z,70
2016-07-13T11:44:36.072Z,70
2016-07-13T11:45:35.013Z,75
2016-07-13T11:46:35.038Z,75
2016-07-13T11:47:35.735Z,75
2016-07-13T11:48:36.450Z,75
2016-07-13T11:49:36.737Z,80
2016-07-13T11:50:35.768Z,90
2016-07-13T11:51:35.698Z,85
2016-07-13T11:52:35.066Z,90
2016-07-13T11:53:37.599Z,95
2016-07-13T11:54:35.815Z,100
2016-07-13T11:55:36.485Z,95
2016-07-13T11:56:35.790Z,100
2016-07-13T11:57:33.679Z,100
2016-07-13T11:58:34.383Z,105
2016-07-13T11:59:35.110Z,100
2016-07-13T12:00:35.106Z,100
2016-07-13T12:01:35.109Z,100
2016-07-13T12:02:35.285Z,100
2016-07-13T12:03:34.414Z,100
2016-07-13T12:04:37.762Z,100
2016-07-13T12:05:35.136Z,105
2016-07-13T12:06:35.138Z,105
2016-07-13T12:07:35.146Z,100
2016-07-13T12:08:35.152Z,100
2016-07-13T12:09:35.161Z,100
2016-07-13T12:10:35.169Z,100
2016-07-13T12:11:35.172Z,100
2016-07-13T12:12:35.892Z,100
2016-07-13T12:13:36.142Z,100
2016-07-13T12:14:35.898Z,100
2016-07-13T12:15:35.194Z,100
2016-07-13T12:16:35.903Z,100
2016-07-13T12:17:37.019Z,100
2016-07-13T12:18:35.918Z,100
2016-07-13T12:19:35.226Z,100
2016-07-13T12:20:34.523Z,100
2016-07-13T12:21:35.243Z,100
2016-07-13T12:22:35.241Z,95
2016-07-13T12:23:33.831Z,95
2016-07-13T12:24:37.127Z,95
2016-07-13T12:25:35.958Z,95
2016-07-13T12:26:36.111Z,95
2016-07-13T12:27:35.313Z,95
2016-07-13T12:28:35.979Z,95
2016-07-13T12:29:35.291Z,95
2016-07-13T12:30:34.574Z,90
2016-07-13T12:31:34.590Z,90
2016-07-13T12:32:34.590Z,90
2016-07-13T12:33:36.010Z,85
2016-07-13T12:34:35.328Z,85
2016-07-13T12:35:36.146Z,85
2016-07-13T12:36:36.025Z,85
2016-07-13T12:37:35.969Z,80
2016-07-13T12:38:36.755Z,80
2016-07-13T12:39:36.068Z,80
2016-07-13T12:40:36.048Z,70
2016-07-13T12:41:35.354Z,70
2016-07-13T12:42:36.068Z,70
2016-07-13T12:43:36.145Z,75
2016-07-13T12:44:36.124Z,75
2016-07-13T12:45:36.086Z,75
2016-07-13T12:46:37.410Z,75
2016-07-13T12:47:36.096Z,75
2016-07-13T12:48:36.398Z,70
2016-07-13T12:49:36.109Z,70
2016-07-13T12:50:35.405Z,70
2016-07-13T12:51:36.185Z,70
2016-07-13T12:52:35.429Z,65
2016-07-13T12:53:36.840Z,65
2016-07-13T12:54:36.173Z,65
2016-07-13T12:55:34.731Z,65
2016-07-13T12:56:34.736Z,65
2016-07-13T12:57:37.573Z,65
2016-07-13T12:58:36.180Z,65
2016-07-13T12:59:37.402Z,65
2016-07-13T13:00:34.765Z,65
2016-07-13T13:01:35.488Z,65
2016-07-13T13:02:35.489Z,65
2016-07-13T13:03:35.846Z,65
2016-07-13T13:04:36.325Z,65
2016-07-13T13:05:34.807Z,60
2016-07-13T13:06:36.219Z,65
2016-07-13T13:07:35.167Z,65
2016-07-13T13:08:35.527Z,60
2016-07-13T13:09:36.955Z,60
2016-07-13T13:10:37.468Z,60
2016-07-13T13:11:34.831Z,60
2016-07-13T13:12:34.836Z,60
2016-07-13T13:13:35.549Z,60
2016-07-13T13:14:35.571Z,55
2016-07-13T13:15:36.274Z,55
2016-07-13T13:16:36.277Z,55
2016-07-13T13:17:34.159Z,50
2016-07-13T13:18:34.878Z,50
2016-07-13T13:19:37.535Z,50
2016-07-13T13:20:36.299Z,50
2016-07-13T13:21:37.403Z,50
2016-07-13T13:22:34.900Z,45
2016-07-13T13:23:34.906Z,45
2016-07-13T13:24:36.331Z,45
2016-07-13T13:25:36.332Z,45
2016-07-13T13:26:36.342Z,45
2016-07-13T13:27:34.934Z,45
2016-07-13T13:28:36.352Z,45
2016-07-13T13:29:35.706Z,45
2016-07-13T13:30:35.953Z,45
2016-07-13T13:31:35.658Z,45
2016-07-13T13:32:37.804Z,45
2016-07-13T13:33:35.681Z,45
2016-07-13T13:34:35.684Z,45
2016-07-13T13:35:35.700Z,45
2016-07-13T13:36:35.766Z,45
2016-07-13T13:37:35.795Z,50
2016-07-13T13:38:36.407Z,50
2016-07-13T13:39:36.497Z,50
2016-07-13T13:40:37.212Z,50
2016-07-13T13:41:36.629Z,55
2016-07-13T13:42:36.556Z,55
2016-07-13T13:43:35.733Z,55
2016-07-13T13:44:35.082Z,55
2016-07-13T13:45:36.450Z,55
2016-07-13T13:46:36.458Z,55
2016-07-13T13:47:35.049Z,55
2016-07-13T13:48:35.058Z,55
2016-07-13T13:49:35.784Z,55
2016-07-13T13:50:37.185Z,55
2016-07-13T13:51:35.780Z,55
2016-07-13T13:52:36.389Z,55
2016-07-13T13:53:35.798Z,55
2016-07-13T13:54:35.246Z,55
2016-07-13T13:55:36.512Z,55
2016-07-13T13:56:35.811Z,55
2016-07-13T13:57:37.316Z,55
2016-07-13T13:58:35.828Z,60
2016-07-13T13:59:36.538Z,60
2016-07-13T14:00:35.941Z,65
2016-07-13T14:01:35.931Z,65
2016-07-13T14:02:36.623Z,65
2016-07-13T14:03:36.897Z,70
2016-07-13T14:04:35.878Z,70
2016-07-13T14:05:35.862Z,70
2016-07-13T14:06:35.881Z,70
2016-07-13T14:07:35.883Z,70
2016-07-13T14:08:36.604Z,70
2016-07-13T14:09:36.604Z,65
2016-07-13T14:10:35.190Z,70